Terminal Aerodrome Forecast
Issued by NWS

Home | Current Version | Previous Version | Text Only | Print | Product List | Glossary On
Versions: 1 2 3 4 5 6 7 8 9 10 11 12 13 14 15 16 17 18 19 20 21 22 23 24 25 26 27
000
FTUS42 KMFL 191256 AAA
TAFFXE
TAF AMD
KFXE 191256Z 1913/2012 20007KT P6SM -SHRA SCT060 BKN090 BKN120
     FM191500 23010KT P6SM SCT025 BKN050
     FM191800 23010G20KT P6SM SCT040 BKN080
     FM192300 28007KT P6SM FEW025 SCT250=

USA.gov is the U.S. government's official web portal to all federal, state and local government web resources and services.